sensor_id;sensor_type;location;lat;lon;timestamp;temperature;humidity
22008;DHT22;11168;56.976;24.168;2024-02-21T00:00:05;0.90;99.90
22008;DHT22;11168;56.976;24.168;2024-02-21T00:02:32;0.90;99.90
22008;DHT22;11168;56.976;24.168;2024-02-21T00:04:59;0.90;99.90
22008;DHT22;11168;56.976;24.168;2024-02-21T00:07:27;0.90;99.90
22008;DHT22;11168;56.976;24.168;2024-02-21T00:09:55;0.90;99.90
22008;DHT22;11168;56.976;24.168;2024-02-21T00:12:22;0.90;99.90
22008;DHT22;11168;56.976;24.168;2024-02-21T00:14:49;0.90;99.90
22008;DHT22;11168;56.976;24.168;2024-02-21T00:17:17;0.80;99.90
22008;DHT22;11168;56.976;24.168;2024-02-21T00:19:44;0.80;99.90
22008;DHT22;11168;56.976;24.168;2024-02-21T00:22:12;0.80;99.90
22008;DHT22;11168;56.976;24.168;2024-02-21T00:24:39;0.80;99.90
22008;DHT22;11168;56.976;24.168;2024-02-21T00:27:07;0.80;99.90
22008;DHT22;11168;56.976;24.168;2024-02-21T00:29:35;0.80;99.90
22008;DHT22;11168;56.976;24.168;2024-02-21T00:32:03;0.80;99.90
22008;DHT22;11168;56.976;24.168;2024-02-21T00:34:33;0.70;99.90
22008;DHT22;11168;56.976;24.168;2024-02-21T00:37:00;0.70;99.90
22008;DHT22;11168;56.976;24.168;2024-02-21T00:39:28;0.70;99.90
22008;DHT22;11168;56.976;24.168;2024-02-21T00:41:55;0.70;99.90
22008;DHT22;11168;56.976;24.168;2024-02-21T00:44:22;0.60;99.90
22008;DHT22;11168;56.976;24.168;2024-02-21T00:46:49;0.60;99.90
22008;DHT22;11168;56.976;24.168;2024-02-21T00:49:19;0.60;99.90
22008;DHT22;11168;56.976;24.168;2024-02-21T00:51:47;0.50;99.90
22008;DHT22;11168;56.976;24.168;2024-02-21T00:54:14;0.60;99.90
22008;DHT22;11168;56.976;24.168;2024-02-21T00:56:42;0.60;99.90
22008;DHT22;11168;56.976;24.168;2024-02-21T00:59:09;0.60;99.90
22008;DHT22;11168;56.976;24.168;2024-02-21T01:01:38;0.60;99.90
22008;DHT22;11168;56.976;24.168;2024-02-21T01:04:09;0.60;99.90
22008;DHT22;11168;56.976;24.168;2024-02-21T01:06:37;0.60;99.90
22008;DHT22;11168;56.976;24.168;2024-02-21T01:09:04;0.60;99.90
22008;DHT22;11168;56.976;24.168;2024-02-21T01:11:31;0.60;99.90
22008;DHT22;11168;56.976;24.168;2024-02-21T01:13:58;0.60;99.90
22008;DHT22;11168;56.976;24.168;2024-02-21T01:16:26;0.50;99.90
22008;DHT22;11168;56.976;24.168;2024-02-21T01:18:53;0.50;99.90
22008;DHT22;11168;56.976;24.168;2024-02-21T01:21:20;0.50;99.90
22008;DHT22;11168;56.976;24.168;2024-02-21T01:23:47;0.50;99.90
22008;DHT22;11168;56.976;24.168;2024-02-21T01:26:17;0.50;99.90
22008;DHT22;11168;56.976;24.168;2024-02-21T01:28:45;0.50;99.90
22008;DHT22;11168;56.976;24.168;2024-02-21T01:31:12;0.50;99.90
22008;DHT22;11168;56.976;24.168;2024-02-21T01:33:40;0.50;99.90
22008;DHT22;11168;56.976;24.168;2024-02-21T01:36:09;0.40;99.90
22008;DHT22;11168;56.976;24.168;2024-02-21T01:38:36;0.50;99.90
22008;DHT22;11168;56.976;24.168;2024-02-21T01:41:04;0.50;99.90
22008;DHT22;11168;56.976;24.168;2024-02-21T01:43:31;0.50;99.90
22008;DHT22;11168;56.976;24.168;2024-02-21T01:45:58;0.50;99.90
22008;DHT22;11168;56.976;24.168;2024-02-21T01:48:25;0.50;99.90
22008;DHT22;11168;56.976;24.168;2024-02-21T01:50:54;0.40;99.90
22008;DHT22;11168;56.976;24.168;2024-02-21T01:53:34;0.40;99.90
22008;DHT22;11168;56.976;24.168;2024-02-21T01:56:03;0.40;99.90
22008;DHT22;11168;56.976;24.168;2024-02-21T01:58:33;0.40;99.90
22008;DHT22;11168;56.976;24.168;2024-02-21T02:01:03;0.40;99.90
22008;DHT22;11168;56.976;24.168;2024-02-21T02:03:34;0.40;99.90
22008;DHT22;11168;56.976;24.168;2024-02-21T02:06:02;0.40;99.90
22008;DHT22;11168;56.976;24.168;2024-02-21T02:08:29;0.40;99.90
22008;DHT22;11168;56.976;24.168;2024-02-21T02:10:56;0.40;99.90
22008;DHT22;11168;56.976;24.168;2024-02-21T02:13:24;0.40;99.90
22008;DHT22;11168;56.976;24.168;2024-02-21T02:15:51;0.40;99.90
22008;DHT22;11168;56.976;24.168;2024-02-21T02:18:20;0.40;99.90
22008;DHT22;11168;56.976;24.168;2024-02-21T02:20:47;0.40;99.90
22008;DHT22;11168;56.976;24.168;2024-02-21T02:23:31;0.40;99.90
22008;DHT22;11168;56.976;24.168;2024-02-21T02:26:01;0.40;99.90
22008;DHT22;11168;56.976;24.168;2024-02-21T02:28:28;0.30;99.90
22008;DHT22;11168;56.976;24.168;2024-02-21T02:30:56;0.30;99.90
22008;DHT22;11168;56.976;24.168;2024-02-21T02:33:23;0.30;99.90
22008;DHT22;11168;56.976;24.168;2024-02-21T02:35:51;0.40;99.90
22008;DHT22;11168;56.976;24.168;2024-02-21T02:38:18;0.40;99.90
22008;DHT22;11168;56.976;24.168;2024-02-21T02:40:45;0.30;99.90
22008;DHT22;11168;56.976;24.168;2024-02-21T02:43:12;0.30;99.90
22008;DHT22;11168;56.976;24.168;2024-02-21T02:45:40;0.30;99.90
22008;DHT22;11168;56.976;24.168;2024-02-21T02:48:07;0.30;99.90
22008;DHT22;11168;56.976;24.168;2024-02-21T02:50:34;0.30;99.90
22008;DHT22;11168;56.976;24.168;2024-02-21T02:53:01;0.30;99.90
22008;DHT22;11168;56.976;24.168;2024-02-21T02:55:30;0.20;99.90
22008;DHT22;11168;56.976;24.168;2024-02-21T02:57:57;0.30;99.90
22008;DHT22;11168;56.976;24.168;2024-02-21T03:00:24;0.20;99.90
22008;DHT22;11168;56.976;24.168;2024-02-21T03:02:51;0.20;99.90
22008;DHT22;11168;56.976;24.168;2024-02-21T03:05:22;0.20;99.90
22008;DHT22;11168;56.976;24.168;2024-02-21T03:07:51;0.20;99.90
22008;DHT22;11168;56.976;24.168;2024-02-21T03:10:19;0.10;99.90
22008;DHT22;11168;56.976;24.168;2024-02-21T03:12:46;0.20;99.90
22008;DHT22;11168;56.976;24.168;2024-02-21T03:15:14;0.10;99.90
22008;DHT22;11168;56.976;24.168;2024-02-21T03:17:42;0.10;99.90
22008;DHT22;11168;56.976;24.168;2024-02-21T03:20:10;0.10;99.90
22008;DHT22;11168;56.976;24.168;2024-02-21T03:22:40;0.10;99.90
22008;DHT22;11168;56.976;24.168;2024-02-21T03:25:11;0.10;99.90
22008;DHT22;11168;56.976;24.168;2024-02-21T03:27:39;0.10;99.90
22008;DHT22;11168;56.976;24.168;2024-02-21T03:30:07;0.10;99.90
22008;DHT22;11168;56.976;24.168;2024-02-21T03:32:34;0.10;99.90
22008;DHT22;11168;56.976;24.168;2024-02-21T03:35:02;0.20;99.90
22008;DHT22;11168;56.976;24.168;2024-02-21T03:37:29;0.20;99.90
22008;DHT22;11168;56.976;24.168;2024-02-21T03:39:57;0.20;99.90
22008;DHT22;11168;56.976;24.168;2024-02-21T03:42:24;0.10;99.90
22008;DHT22;11168;56.976;24.168;2024-02-21T03:44:55;0.20;99.90
22008;DHT22;11168;56.976;24.168;2024-02-21T03:47:23;0.20;99.90
22008;DHT22;11168;56.976;24.168;2024-02-21T03:49:52;0.20;99.90
22008;DHT22;11168;56.976;24.168;2024-02-21T03:52:20;0.20;99.90
22008;DHT22;11168;56.976;24.168;2024-02-21T03:54:47;0.20;99.90
22008;DHT22;11168;56.976;24.168;2024-02-21T03:57:14;0.20;99.90
22008;DHT22;11168;56.976;24.168;2024-02-21T03:59:41;0.20;99.90
22008;DHT22;11168;56.976;24.168;2024-02-21T04:02:10;0.20;99.90
22008;DHT22;11168;56.976;24.168;2024-02-21T04:04:38;0.20;99.90
22008;DHT22;11168;56.976;24.168;2024-02-21T04:07:05;0.20;99.90
22008;DHT22;11168;56.976;24.168;2024-02-21T04:09:33;0.20;99.90
22008;DHT22;11168;56.976;24.168;2024-02-21T04:12:06;0.20;99.90
22008;DHT22;11168;56.976;24.168;2024-02-21T04:14:39;0.20;99.90
22008;DHT22;11168;56.976;24.168;2024-02-21T04:17:10;0.30;99.90
22008;DHT22;11168;56.976;24.168;2024-02-21T04:19:37;0.20;99.90
22008;DHT22;11168;56.976;24.168;2024-02-21T04:22:05;0.30;99.90
22008;DHT22;11168;56.976;24.168;2024-02-21T04:24:32;0.30;99.90
22008;DHT22;11168;56.976;24.168;2024-02-21T04:27:02;0.20;99.90
22008;DHT22;11168;56.976;24.168;2024-02-21T04:29:29;0.20;99.90
22008;DHT22;11168;56.976;24.168;2024-02-21T04:31:56;0.30;99.90
22008;DHT22;11168;56.976;24.168;2024-02-21T04:34:24;0.20;99.90
22008;DHT22;11168;56.976;24.168;2024-02-21T04:36:51;0.20;99.90
22008;DHT22;11168;56.976;24.168;2024-02-21T04:39:18;0.20;99.90
22008;DHT22;11168;56.976;24.168;2024-02-21T04:41:45;0.20;99.90
22008;DHT22;11168;56.976;24.168;2024-02-21T04:44:12;0.30;99.90
22008;DHT22;11168;56.976;24.168;2024-02-21T04:46:42;0.20;99.90
22008;DHT22;11168;56.976;24.168;2024-02-21T04:49:09;0.30;99.90
22008;DHT22;11168;56.976;24.168;2024-02-21T04:51:37;0.30;99.90
22008;DHT22;11168;56.976;24.168;2024-02-21T04:54:04;0.30;99.90
22008;DHT22;11168;56.976;24.168;2024-02-21T04:56:33;0.30;99.90
22008;DHT22;11168;56.976;24.168;2024-02-21T04:59:00;0.20;99.90
22008;DHT22;11168;56.976;24.168;2024-02-21T05:01:31;0.30;99.90
22008;DHT22;11168;56.976;24.168;2024-02-21T05:03:58;0.20;99.90
22008;DHT22;11168;56.976;24.168;2024-02-21T05:06:25;0.30;99.90
22008;DHT22;11168;56.976;24.168;2024-02-21T05:08:52;0.20;99.90
22008;DHT22;11168;56.976;24.168;2024-02-21T05:11:19;0.20;99.90
22008;DHT22;11168;56.976;24.168;2024-02-21T05:13:50;0.20;99.90
22008;DHT22;11168;56.976;24.168;2024-02-21T05:16:18;0.20;99.90
22008;DHT22;11168;56.976;24.168;2024-02-21T05:18:46;0.20;99.90
22008;DHT22;11168;56.976;24.168;2024-02-21T05:21:13;0.30;99.90
22008;DHT22;11168;56.976;24.168;2024-02-21T05:23:41;0.20;99.90
22008;DHT22;11168;56.976;24.168;2024-02-21T05:26:08;0.30;99.90
22008;DHT22;11168;56.976;24.168;2024-02-21T05:28:36;0.30;99.90
22008;DHT22;11168;56.976;24.168;2024-02-21T05:31:03;0.30;99.90
22008;DHT22;11168;56.976;24.168;2024-02-21T05:33:31;0.30;99.90
22008;DHT22;11168;56.976;24.168;2024-02-21T05:35:58;0.30;99.90
22008;DHT22;11168;56.976;24.168;2024-02-21T05:38:25;0.30;99.90
22008;DHT22;11168;56.976;24.168;2024-02-21T05:40:52;0.30;99.90
22008;DHT22;11168;56.976;24.168;2024-02-21T05:43:21;0.40;99.90
22008;DHT22;11168;56.976;24.168;2024-02-21T05:45:48;0.40;99.90
22008;DHT22;11168;56.976;24.168;2024-02-21T05:48:15;0.40;99.90
22008;DHT22;11168;56.976;24.168;2024-02-21T05:50:43;0.40;99.90
22008;DHT22;11168;56.976;24.168;2024-02-21T05:53:10;0.40;99.90
22008;DHT22;11168;56.976;24.168;2024-02-21T05:55:38;0.40;99.90
22008;DHT22;11168;56.976;24.168;2024-02-21T05:58:05;0.50;99.90
22008;DHT22;11168;56.976;24.168;2024-02-21T06:00:33;0.40;99.90
22008;DHT22;11168;56.976;24.168;2024-02-21T06:03:00;0.50;99.90
22008;DHT22;11168;56.976;24.168;2024-02-21T06:05:27;0.50;99.90
22008;DHT22;11168;56.976;24.168;2024-02-21T06:07:55;0.50;99.90
22008;DHT22;11168;56.976;24.168;2024-02-21T06:10:22;0.50;99.90
22008;DHT22;11168;56.976;24.168;2024-02-21T06:12:50;0.60;99.90
22008;DHT22;11168;56.976;24.168;2024-02-21T06:15:17;0.60;99.90
22008;DHT22;11168;56.976;24.168;2024-02-21T06:17:44;0.60;99.90
22008;DHT22;11168;56.976;24.168;2024-02-21T06:20:11;0.70;99.90
22008;DHT22;11168;56.976;24.168;2024-02-21T06:22:38;0.60;99.90
22008;DHT22;11168;56.976;24.168;2024-02-21T06:25:05;0.70;99.90
22008;DHT22;11168;56.976;24.168;2024-02-21T06:27:33;0.70;99.90
22008;DHT22;11168;56.976;24.168;2024-02-21T06:30:00;0.70;99.90
22008;DHT22;11168;56.976;24.168;2024-02-21T06:32:27;0.70;99.90
22008;DHT22;11168;56.976;24.168;2024-02-21T06:34:56;0.70;99.90
22008;DHT22;11168;56.976;24.168;2024-02-21T06:37:25;0.70;99.90
22008;DHT22;11168;56.976;24.168;2024-02-21T06:39:54;0.80;99.90
22008;DHT22;11168;56.976;24.168;2024-02-21T06:42:21;0.80;99.90
22008;DHT22;11168;56.976;24.168;2024-02-21T06:44:51;0.90;99.90
22008;DHT22;11168;56.976;24.168;2024-02-21T06:47:18;0.90;99.90
22008;DHT22;11168;56.976;24.168;2024-02-21T06:49:49;0.90;99.90
22008;DHT22;11168;56.976;24.168;2024-02-21T06:52:19;0.90;99.90
22008;DHT22;11168;56.976;24.168;2024-02-21T06:54:51;0.90;99.90
22008;DHT22;11168;56.976;24.168;2024-02-21T06:57:18;0.90;99.90
22008;DHT22;11168;56.976;24.168;2024-02-21T06:59:46;1.00;99.90
22008;DHT22;11168;56.976;24.168;2024-02-21T07:02:13;1.00;99.90
22008;DHT22;11168;56.976;24.168;2024-02-21T07:04:40;1.00;99.90
22008;DHT22;11168;56.976;24.168;2024-02-21T07:07:07;1.10;99.90
22008;DHT22;11168;56.976;24.168;2024-02-21T07:09:35;1.00;99.90
22008;DHT22;11168;56.976;24.168;2024-02-21T07:12:05;1.10;99.90
22008;DHT22;11168;56.976;24.168;2024-02-21T07:14:32;1.10;99.90
22008;DHT22;11168;56.976;24.168;2024-02-21T07:17:00;1.10;99.90
22008;DHT22;11168;56.976;24.168;2024-02-21T07:19:27;1.20;99.90
22008;DHT22;11168;56.976;24.168;2024-02-21T07:21:54;1.20;99.90
22008;DHT22;11168;56.976;24.168;2024-02-21T07:24:21;1.20;99.90
22008;DHT22;11168;56.976;24.168;2024-02-21T07:26:48;1.30;99.90
22008;DHT22;11168;56.976;24.168;2024-02-21T07:29:15;1.30;99.90
22008;DHT22;11168;56.976;24.168;2024-02-21T07:31:43;1.30;99.90
22008;DHT22;11168;56.976;24.168;2024-02-21T07:34:10;1.30;99.90
22008;DHT22;11168;56.976;24.168;2024-02-21T07:36:37;1.40;99.90
22008;DHT22;11168;56.976;24.168;2024-02-21T07:39:06;1.40;99.90
22008;DHT22;11168;56.976;24.168;2024-02-21T07:41:33;1.40;99.90
22008;DHT22;11168;56.976;24.168;2024-02-21T07:44:01;1.50;99.90
22008;DHT22;11168;56.976;24.168;2024-02-21T07:46:30;1.50;99.90
22008;DHT22;11168;56.976;24.168;2024-02-21T07:48:57;1.60;99.90
22008;DHT22;11168;56.976;24.168;2024-02-21T07:51:28;1.50;99.90
22008;DHT22;11168;56.976;24.168;2024-02-21T07:53:55;1.60;99.90
22008;DHT22;11168;56.976;24.168;2024-02-21T07:56:22;1.70;99.90
22008;DHT22;11168;56.976;24.168;2024-02-21T07:58:49;1.70;99.90
22008;DHT22;11168;56.976;24.168;2024-02-21T08:01:20;1.70;99.90
22008;DHT22;11168;56.976;24.168;2024-02-21T08:03:51;1.70;99.90
22008;DHT22;11168;56.976;24.168;2024-02-21T08:06:18;1.70;99.90
22008;DHT22;11168;56.976;24.168;2024-02-21T08:08:45;1.70;99.90
22008;DHT22;11168;56.976;24.168;2024-02-21T08:11:13;1.70;99.90
22008;DHT22;11168;56.976;24.168;2024-02-21T08:13:40;1.80;99.90
22008;DHT22;11168;56.976;24.168;2024-02-21T08:16:10;1.80;99.90
22008;DHT22;11168;56.976;24.168;2024-02-21T08:18:39;1.80;99.90
22008;DHT22;11168;56.976;24.168;2024-02-21T08:21:06;1.80;99.90
22008;DHT22;11168;56.976;24.168;2024-02-21T08:23:33;1.80;99.90
22008;DHT22;11168;56.976;24.168;2024-02-21T08:26:03;1.80;99.90
22008;DHT22;11168;56.976;24.168;2024-02-21T08:28:31;1.80;99.90
22008;DHT22;11168;56.976;24.168;2024-02-21T08:30:58;1.80;99.90
22008;DHT22;11168;56.976;24.168;2024-02-21T08:33:25;1.80;99.90
22008;DHT22;11168;56.976;24.168;2024-02-21T08:35:52;1.80;99.90
22008;DHT22;11168;56.976;24.168;2024-02-21T08:38:19;1.90;99.90
22008;DHT22;11168;56.976;24.168;2024-02-21T08:40:47;1.90;99.90
22008;DHT22;11168;56.976;24.168;2024-02-21T08:43:15;1.90;99.90
22008;DHT22;11168;56.976;24.168;2024-02-21T08:45:42;1.90;99.90
22008;DHT22;11168;56.976;24.168;2024-02-21T08:48:09;2.00;99.90
22008;DHT22;11168;56.976;24.168;2024-02-21T08:50:36;1.90;99.90
22008;DHT22;11168;56.976;24.168;2024-02-21T08:53:05;1.90;99.90
22008;DHT22;11168;56.976;24.168;2024-02-21T08:55:32;1.90;99.90
22008;DHT22;11168;56.976;24.168;2024-02-21T08:58:00;1.90;99.90
22008;DHT22;11168;56.976;24.168;2024-02-21T09:00:27;1.90;99.90
22008;DHT22;11168;56.976;24.168;2024-02-21T09:02:56;2.00;99.90
22008;DHT22;11168;56.976;24.168;2024-02-21T09:05:23;2.10;99.90
22008;DHT22;11168;56.976;24.168;2024-02-21T09:07:52;2.20;99.90
22008;DHT22;11168;56.976;24.168;2024-02-21T09:10:19;2.20;99.90
22008;DHT22;11168;56.976;24.168;2024-02-21T09:12:46;2.20;99.90
22008;DHT22;11168;56.976;24.168;2024-02-21T09:15:14;2.20;99.90
22008;DHT22;11168;56.976;24.168;2024-02-21T09:17:41;2.10;99.90
22008;DHT22;11168;56.976;24.168;2024-02-21T09:20:08;2.00;99.90
22008;DHT22;11168;56.976;24.168;2024-02-21T09:22:39;2.00;99.90
22008;DHT22;11168;56.976;24.168;2024-02-21T09:25:07;1.90;99.90
22008;DHT22;11168;56.976;24.168;2024-02-21T09:27:34;1.90;99.90
22008;DHT22;11168;56.976;24.168;2024-02-21T09:30:01;1.90;99.90
22008;DHT22;11168;56.976;24.168;2024-02-21T09:32:31;1.90;99.90
22008;DHT22;11168;56.976;24.168;2024-02-21T09:34:59;1.90;99.90
22008;DHT22;11168;56.976;24.168;2024-02-21T09:37:28;1.90;99.90
22008;DHT22;11168;56.976;24.168;2024-02-21T09:39:56;1.90;99.90
22008;DHT22;11168;56.976;24.168;2024-02-21T09:42:32;2.00;99.90
22008;DHT22;11168;56.976;24.168;2024-02-21T09:45:20;2.00;99.90
22008;DHT22;11168;56.976;24.168;2024-02-21T09:50:34;1.90;99.90
22008;DHT22;11168;56.976;24.168;2024-02-21T09:53:04;1.90;99.90
22008;DHT22;11168;56.976;24.168;2024-02-21T09:55:33;1.90;99.90
22008;DHT22;11168;56.976;24.168;2024-02-21T09:58:02;1.90;99.90
22008;DHT22;11168;56.976;24.168;2024-02-21T10:00:30;1.90;99.90
22008;DHT22;11168;56.976;24.168;2024-02-21T10:02:58;2.00;99.90
22008;DHT22;11168;56.976;24.168;2024-02-21T10:05:26;2.00;99.90
22008;DHT22;11168;56.976;24.168;2024-02-21T10:07:56;2.10;99.90
22008;DHT22;11168;56.976;24.168;2024-02-21T10:10:24;2.20;99.90
22008;DHT22;11168;56.976;24.168;2024-02-21T10:12:51;2.30;99.90
22008;DHT22;11168;56.976;24.168;2024-02-21T10:15:22;2.40;99.90
22008;DHT22;11168;56.976;24.168;2024-02-21T10:18:01;2.40;99.90
22008;DHT22;11168;56.976;24.168;2024-02-21T10:20:34;2.50;99.90
22008;DHT22;11168;56.976;24.168;2024-02-21T10:23:02;2.40;99.90
22008;DHT22;11168;56.976;24.168;2024-02-21T10:25:32;2.50;99.90
22008;DHT22;11168;56.976;24.168;2024-02-21T10:27:59;2.50;99.90
22008;DHT22;11168;56.976;24.168;2024-02-21T10:30:28;2.50;99.90
22008;DHT22;11168;56.976;24.168;2024-02-21T10:32:56;2.60;99.90
22008;DHT22;11168;56.976;24.168;2024-02-21T10:35:32;2.60;99.90
22008;DHT22;11168;56.976;24.168;2024-02-21T10:38:02;2.60;99.90
22008;DHT22;11168;56.976;24.168;2024-02-21T10:40:30;2.70;99.90
22008;DHT22;11168;56.976;24.168;2024-02-21T10:42:59;2.70;99.90
22008;DHT22;11168;56.976;24.168;2024-02-21T10:45:32;2.70;99.90
22008;DHT22;11168;56.976;24.168;2024-02-21T10:48:12;2.70;99.90
22008;DHT22;11168;56.976;24.168;2024-02-21T10:50:56;2.60;99.90
22008;DHT22;11168;56.976;24.168;2024-02-21T10:56:34;2.60;99.90
22008;DHT22;11168;56.976;24.168;2024-02-21T10:59:05;2.60;99.90
22008;DHT22;11168;56.976;24.168;2024-02-21T11:01:33;2.60;99.90
22008;DHT22;11168;56.976;24.168;2024-02-21T11:04:05;2.60;99.90
22008;DHT22;11168;56.976;24.168;2024-02-21T11:06:37;2.60;99.90
22008;DHT22;11168;56.976;24.168;2024-02-21T11:09:07;2.70;99.90
22008;DHT22;11168;56.976;24.168;2024-02-21T11:11:41;2.70;99.90
22008;DHT22;11168;56.976;24.168;2024-02-21T11:14:19;2.80;99.90
22008;DHT22;11168;56.976;24.168;2024-02-21T11:16:47;2.80;99.90
22008;DHT22;11168;56.976;24.168;2024-02-21T11:19:25;2.80;99.90
22008;DHT22;11168;56.976;24.168;2024-02-21T11:21:54;2.80;99.90
22008;DHT22;11168;56.976;24.168;2024-02-21T11:24:31;2.70;99.90
22008;DHT22;11168;56.976;24.168;2024-02-21T11:27:21;2.70;99.90
22008;DHT22;11168;56.976;24.168;2024-02-21T11:29:56;2.70;99.90
22008;DHT22;11168;56.976;24.168;2024-02-21T11:32:25;2.70;99.90
22008;DHT22;11168;56.976;24.168;2024-02-21T11:35:03;2.70;99.90
22008;DHT22;11168;56.976;24.168;2024-02-21T11:37:36;2.80;99.90
22008;DHT22;11168;56.976;24.168;2024-02-21T11:40:07;2.80;99.90
22008;DHT22;11168;56.976;24.168;2024-02-21T11:42:38;2.90;99.90
22008;DHT22;11168;56.976;24.168;2024-02-21T11:45:06;2.80;99.90
22008;DHT22;11168;56.976;24.168;2024-02-21T11:47:36;2.90;99.90
22008;DHT22;11168;56.976;24.168;2024-02-21T11:50:10;2.90;99.90
22008;DHT22;11168;56.976;24.168;2024-02-21T11:52:38;3.00;99.90
22008;DHT22;11168;56.976;24.168;2024-02-21T11:55:06;2.90;99.90
22008;DHT22;11168;56.976;24.168;2024-02-21T11:57:37;2.90;99.90
22008;DHT22;11168;56.976;24.168;2024-02-21T12:00:15;2.90;99.90
22008;DHT22;11168;56.976;24.168;2024-02-21T12:02:44;3.00;99.90
22008;DHT22;11168;56.976;24.168;2024-02-21T12:05:13;3.10;99.90
22008;DHT22;11168;56.976;24.168;2024-02-21T12:07:41;3.00;99.90
22008;DHT22;11168;56.976;24.168;2024-02-21T12:10:09;3.00;99.90
22008;DHT22;11168;56.976;24.168;2024-02-21T12:12:38;3.10;99.90
22008;DHT22;11168;56.976;24.168;2024-02-21T12:15:07;3.10;99.90
22008;DHT22;11168;56.976;24.168;2024-02-21T12:17:36;3.00;99.90
22008;DHT22;11168;56.976;24.168;2024-02-21T12:20:04;3.00;99.90
22008;DHT22;11168;56.976;24.168;2024-02-21T12:22:44;3.00;99.90
22008;DHT22;11168;56.976;24.168;2024-02-21T12:25:23;3.10;99.90
22008;DHT22;11168;56.976;24.168;2024-02-21T12:27:53;3.10;99.90
22008;DHT22;11168;56.976;24.168;2024-02-21T12:30:20;3.00;99.90
22008;DHT22;11168;56.976;24.168;2024-02-21T12:32:48;3.00;99.90
22008;DHT22;11168;56.976;24.168;2024-02-21T12:35:16;2.90;99.90
22008;DHT22;11168;56.976;24.168;2024-02-21T12:37:44;2.90;99.90
22008;DHT22;11168;56.976;24.168;2024-02-21T12:40:12;2.90;99.90
22008;DHT22;11168;56.976;24.168;2024-02-21T12:42:41;2.80;99.90
22008;DHT22;11168;56.976;24.168;2024-02-21T12:45:09;2.80;99.90
22008;DHT22;11168;56.976;24.168;2024-02-21T12:47:36;2.80;99.90
22008;DHT22;11168;56.976;24.168;2024-02-21T12:50:03;2.70;99.90
22008;DHT22;11168;56.976;24.168;2024-02-21T12:52:34;2.70;99.90
22008;DHT22;11168;56.976;24.168;2024-02-21T12:55:02;2.70;99.90
22008;DHT22;11168;56.976;24.168;2024-02-21T12:57:29;2.80;99.90
22008;DHT22;11168;56.976;24.168;2024-02-21T12:59:57;2.70;99.90
22008;DHT22;11168;56.976;24.168;2024-02-21T13:02:26;2.70;99.90
22008;DHT22;11168;56.976;24.168;2024-02-21T13:04:54;2.70;99.90
22008;DHT22;11168;56.976;24.168;2024-02-21T13:07:21;2.70;99.90
22008;DHT22;11168;56.976;24.168;2024-02-21T13:09:48;2.80;99.90
22008;DHT22;11168;56.976;24.168;2024-02-21T13:12:16;2.70;99.90
22008;DHT22;11168;56.976;24.168;2024-02-21T13:14:45;2.80;99.90
22008;DHT22;11168;56.976;24.168;2024-02-21T13:17:12;2.70;99.90
22008;DHT22;11168;56.976;24.168;2024-02-21T13:19:40;2.70;99.90
22008;DHT22;11168;56.976;24.168;2024-02-21T13:22:09;2.60;99.90
22008;DHT22;11168;56.976;24.168;2024-02-21T13:24:36;2.60;99.90
22008;DHT22;11168;56.976;24.168;2024-02-21T13:27:03;2.60;99.90
22008;DHT22;11168;56.976;24.168;2024-02-21T13:29:30;2.60;99.90
22008;DHT22;11168;56.976;24.168;2024-02-21T13:32:00;2.60;99.90
22008;DHT22;11168;56.976;24.168;2024-02-21T13:34:27;2.60;99.90
22008;DHT22;11168;56.976;24.168;2024-02-21T13:36:55;2.60;99.90
22008;DHT22;11168;56.976;24.168;2024-02-21T13:39:22;2.60;99.90
22008;DHT22;11168;56.976;24.168;2024-02-21T13:41:50;2.60;99.90
22008;DHT22;11168;56.976;24.168;2024-02-21T13:44:17;2.60;99.90
22008;DHT22;11168;56.976;24.168;2024-02-21T13:46:44;2.60;99.90
22008;DHT22;11168;56.976;24.168;2024-02-21T13:49:11;2.60;99.90
22008;DHT22;11168;56.976;24.168;2024-02-21T13:51:38;2.60;99.90
22008;DHT22;11168;56.976;24.168;2024-02-21T13:54:07;2.60;99.90
22008;DHT22;11168;56.976;24.168;2024-02-21T13:56:36;2.50;99.90
22008;DHT22;11168;56.976;24.168;2024-02-21T13:59:03;2.50;99.90
22008;DHT22;11168;56.976;24.168;2024-02-21T14:01:32;2.50;99.90
22008;DHT22;11168;56.976;24.168;2024-02-21T14:03:59;2.50;99.90
22008;DHT22;11168;56.976;24.168;2024-02-21T14:06:27;2.50;99.90
22008;DHT22;11168;56.976;24.168;2024-02-21T14:08:54;2.40;99.90
22008;DHT22;11168;56.976;24.168;2024-02-21T14:11:22;2.40;99.90
22008;DHT22;11168;56.976;24.168;2024-02-21T14:13:50;2.40;99.90
22008;DHT22;11168;56.976;24.168;2024-02-21T14:16:17;2.40;99.90
22008;DHT22;11168;56.976;24.168;2024-02-21T14:18:44;2.30;99.90
22008;DHT22;11168;56.976;24.168;2024-02-21T14:21:11;2.30;99.90
22008;DHT22;11168;56.976;24.168;2024-02-21T14:23:39;2.30;99.90
22008;DHT22;11168;56.976;24.168;2024-02-21T14:26:06;2.30;99.90
22008;DHT22;11168;56.976;24.168;2024-02-21T14:28:36;2.30;99.90
22008;DHT22;11168;56.976;24.168;2024-02-21T14:31:04;2.40;99.90
22008;DHT22;11168;56.976;24.168;2024-02-21T14:33:32;2.30;99.90
22008;DHT22;11168;56.976;24.168;2024-02-21T14:36:02;2.30;99.90
22008;DHT22;11168;56.976;24.168;2024-02-21T14:38:30;2.40;99.90
22008;DHT22;11168;56.976;24.168;2024-02-21T14:40:57;2.30;99.90
22008;DHT22;11168;56.976;24.168;2024-02-21T14:43:24;2.30;99.90
22008;DHT22;11168;56.976;24.168;2024-02-21T14:45:56;2.30;99.90
22008;DHT22;11168;56.976;24.168;2024-02-21T14:48:23;2.30;99.90
22008;DHT22;11168;56.976;24.168;2024-02-21T14:50:50;2.30;99.90
22008;DHT22;11168;56.976;24.168;2024-02-21T14:53:17;2.20;99.90
22008;DHT22;11168;56.976;24.168;2024-02-21T14:55:45;2.20;99.90
22008;DHT22;11168;56.976;24.168;2024-02-21T14:58:12;2.20;99.90
22008;DHT22;11168;56.976;24.168;2024-02-21T15:00:39;2.20;99.90
22008;DHT22;11168;56.976;24.168;2024-02-21T15:03:07;2.20;99.90
22008;DHT22;11168;56.976;24.168;2024-02-21T15:05:35;2.20;99.90
22008;DHT22;11168;56.976;24.168;2024-02-21T15:08:04;2.20;99.90
22008;DHT22;11168;56.976;24.168;2024-02-21T15:10:31;2.20;99.90
22008;DHT22;11168;56.976;24.168;2024-02-21T15:13:00;2.20;99.90
22008;DHT22;11168;56.976;24.168;2024-02-21T15:15:27;2.10;99.90
22008;DHT22;11168;56.976;24.168;2024-02-21T15:17:54;2.10;99.90
22008;DHT22;11168;56.976;24.168;2024-02-21T15:20:21;2.10;99.90
22008;DHT22;11168;56.976;24.168;2024-02-21T15:22:49;2.10;99.90
22008;DHT22;11168;56.976;24.168;2024-02-21T15:25:17;2.10;99.90
22008;DHT22;11168;56.976;24.168;2024-02-21T15:27:45;2.10;99.90
22008;DHT22;11168;56.976;24.168;2024-02-21T15:30:15;2.10;99.90
22008;DHT22;11168;56.976;24.168;2024-02-21T15:32:42;2.10;99.90
22008;DHT22;11168;56.976;24.168;2024-02-21T15:35:13;2.10;99.90
22008;DHT22;11168;56.976;24.168;2024-02-21T15:37:41;2.10;99.90
22008;DHT22;11168;56.976;24.168;2024-02-21T15:40:08;2.10;99.90
22008;DHT22;11168;56.976;24.168;2024-02-21T15:42:35;2.10;99.90